Time;durP1;ratioP1;P1;durP2;ratioP2;P2;SDS_P1;SDS_P2;PMS_P1;PMS_P2;Temp;Humidity;BMP_temperature;BMP_pressure;BME280_temperature;BME280_humidity;BME280_pressure;Samples;Min_cycle;Max_cycle;Signal;HPM_P1;HPM_P2
2021/10/18 00:01:47;;;;;;;;;29.50;26.50;;;;;14.19;54.16;101313.97;5052219;28;48324;-84
2021/10/18 00:04:13;;;;;;;;;26.25;25.00;;;;;14.15;53.76;101307.22;5055217;28;47213;-84
2021/10/18 00:06:38;;;;;;;;;28.00;25.25;;;;;14.18;53.87;101313.13;5073724;28;47430;-84
2021/10/18 00:09:04;;;;;;;;;27.50;25.25;;;;;14.20;54.04;101310.38;5073542;28;46136;-84
2021/10/18 00:11:29;;;;;;;;;24.00;21.75;;;;;14.11;53.77;101300.53;5073526;28;45821;-84
2021/10/18 00:13:55;;;;;;;;;22.50;21.50;;;;;14.18;53.76;101317.56;5073898;28;45990;-84
2021/10/18 00:16:22;;;;;;;;;21.50;20.00;;;;;14.04;54.26;101299.28;5055971;28;45957;-83
2021/10/18 00:18:47;;;;;;;;;23.25;20.50;;;;;14.15;54.22;101317.78;5073344;27;45788;-84
2021/10/18 00:21:13;;;;;;;;;21.25;17.50;;;;;14.12;53.97;101318.88;5074519;28;46247;-85
2021/10/18 00:23:38;;;;;;;;;23.00;19.50;;;;;14.02;54.35;101303.84;5053008;28;45939;-84
2021/10/18 00:26:04;;;;;;;;;23.50;21.25;;;;;14.05;54.49;101309.72;5071729;28;45866;-83
2021/10/18 00:28:31;;;;;;;;;23.00;20.25;;;;;13.93;54.48;101286.91;5056316;28;45670;-84
2021/10/18 00:30:56;;;;;;;;;20.75;19.25;;;;;14.04;54.32;101313.31;5072613;28;45682;-85
2021/10/18 00:33:22;;;;;;;;;19.50;18.25;;;;;13.76;54.12;101263.66;5056288;28;47550;-85
2021/10/18 00:35:47;;;;;;;;;22.75;17.25;;;;;13.86;54.18;101293.63;5075086;28;45823;-84
2021/10/18 00:38:12;;;;;;;;;22.00;20.25;;;;;13.84;54.27;101279.69;5056539;28;45967;-84
2021/10/18 00:40:38;;;;;;;;;16.25;16.25;;;;;13.87;54.45;101296.09;5081458;28;45776;-84
2021/10/18 00:43:04;;;;;;;;;19.50;16.00;;;;;13.95;54.29;101311.38;5080886;28;45904;-85
2021/10/18 00:45:29;;;;;;;;;19.00;17.25;;;;;13.73;54.76;101283.13;5079756;28;46121;-84
2021/10/18 00:47:55;;;;;;;;;13.75;13.75;;;;;13.82;54.67;101307.94;5081185;28;45573;-84
2021/10/18 00:50:20;;;;;;;;;21.75;18.25;;;;;13.91;54.28;101323.09;5075549;28;45895;-84
2021/10/18 00:52:46;;;;;;;;;17.75;16.25;;;;;13.90;54.53;101329.31;5038239;28;47362;-84
2021/10/18 00:55:13;;;;;;;;;18.00;16.50;;;;;13.70;54.75;101298.31;5066086;28;45622;-84
2021/10/18 00:57:39;;;;;;;;;16.00;15.50;;;;;13.62;54.85;101284.84;5068423;28;45642;-84
2021/10/18 01:00:06;;;;;;;;;18.00;16.25;;;;;13.74;54.95;101315.56;5065830;28;46204;-83
2021/10/18 01:02:32;;;;;;;;;18.25;16.75;;;;;13.65;54.70;101300.44;5058250;28;46369;-82
2021/10/18 01:04:57;;;;;;;;;18.75;17.00;;;;;13.75;54.67;101317.25;5072924;28;45790;-84
2021/10/18 01:07:23;;;;;;;;;20.00;16.75;;;;;13.78;54.64;101330.19;5067741;28;45610;-84
2021/10/18 01:09:49;;;;;;;;;21.50;20.50;;;;;13.82;54.77;101335.13;5072156;28;48227;-84
2021/10/18 01:12:14;;;;;;;;;20.50;17.75;;;;;13.59;54.85;101293.84;5054941;28;47157;-83
2021/10/18 01:14:39;;;;;;;;;18.50;18.00;;;;;13.62;54.75;101305.94;5073393;28;45814;-84
2021/10/18 01:17:05;;;;;;;;;19.50;17.25;;;;;13.78;55.31;101328.41;5073689;28;45677;-84
2021/10/18 01:19:31;;;;;;;;;22.25;20.00;;;;;13.65;54.94;101310.97;5074047;28;47045;-83
2021/10/18 01:22:00;;;;;;;;;20.00;19.25;;;;;13.73;55.29;101329.69;5059281;28;45998;-83
2021/10/18 01:24:25;;;;;;;;;17.50;16.75;;;;;13.53;55.41;101310.06;5042172;28;46185;-84
2021/10/18 01:26:51;;;;;;;;;21.25;18.75;;;;;13.52;55.14;101308.38;5072142;28;45807;-84
2021/10/18 01:29:16;;;;;;;;;21.25;20.25;;;;;13.70;55.07;101328.13;5047403;28;47267;-84
2021/10/18 01:31:42;;;;;;;;;23.75;20.75;;;;;13.57;55.21;101314.16;5071909;28;45713;-84
2021/10/18 01:34:08;;;;;;;;;23.00;21.00;;;;;13.68;55.21;101322.13;5073057;28;45763;-83
2021/10/18 01:36:34;;;;;;;;;20.75;19.00;;;;;13.50;55.57;101298.91;5060135;28;45694;-83
2021/10/18 01:39:00;;;;;;;;;21.75;19.00;;;;;13.37;55.38;101289.28;5060622;28;46944;-84
2021/10/18 01:41:25;;;;;;;;;22.00;18.00;;;;;13.50;55.41;101312.91;5072379;28;46334;-84
2021/10/18 01:43:51;;;;;;;;;24.00;21.00;;;;;13.59;55.44;101325.44;5073267;28;46001;-84
2021/10/18 01:46:16;;;;;;;;;22.00;22.00;;;;;13.34;55.41;101273.69;5072298;28;45797;-84
2021/10/18 01:48:41;;;;;;;;;22.75;22.00;;;;;13.47;55.79;101289.44;5043509;28;47634;-83
2021/10/18 01:51:08;;;;;;;;;25.50;21.75;;;;;13.63;55.86;101311.09;5071810;27;46131;-84
2021/10/18 01:53:34;;;;;;;;;23.75;20.50;;;;;13.50;55.66;101296.28;5074106;27;45527;-84
2021/10/18 01:55:59;;;;;;;;;20.75;19.00;;;;;13.47;55.43;101286.81;5072703;28;45643;-83
2021/10/18 01:58:24;;;;;;;;;20.50;19.75;;;;;13.55;55.90;101302.06;5072609;28;45655;-84
2021/10/18 02:00:50;;;;;;;;;19.00;17.25;;;;;13.31;55.51;101263.41;5072718;28;45887;-82
2021/10/18 02:03:15;;;;;;;;;21.00;20.00;;;;;13.20;55.60;101241.44;5055120;28;46161;-83
2021/10/18 02:05:41;;;;;;;;;22.25;20.50;;;;;13.56;55.58;101303.72;5060727;28;46138;-83
2021/10/18 02:08:06;;;;;;;;;22.00;19.25;;;;;13.43;55.90;101288.00;5100595;27;46851;-85
2021/10/18 02:10:32;;;;;;;;;20.50;17.25;;;;;13.53;55.50;101307.44;5088857;28;45562;-82
2021/10/18 02:12:57;;;;;;;;;21.50;20.00;;;;;13.53;55.71;101309.22;5078644;28;45289;-83
2021/10/18 02:15:23;;;;;;;;;19.00;18.00;;;;;13.25;55.66;101263.84;5093372;28;46004;-83
2021/10/18 02:17:48;;;;;;;;;20.00;18.75;;;;;13.51;56.26;101297.97;5072787;28;48023;-82
2021/10/18 02:20:15;;;;;;;;;22.75;21.50;;;;;13.38;56.26;101283.06;5088128;28;45664;-83
2021/10/18 02:22:41;;;;;;;;;21.25;19.50;;;;;13.44;56.21;101295.75;5089122;27;45994;-84
2021/10/18 02:25:09;;;;;;;;;19.75;16.25;;;;;13.47;56.27;101304.41;5063681;28;45623;-83
2021/10/18 02:27:35;;;;;;;;;20.00;18.00;;;;;13.22;55.94;101268.50;5083580;27;45606;-82
2021/10/18 02:30:03;;;;;;;;;24.00;21.00;;;;;13.44;56.07;101303.66;5070218;28;48441;-83
2021/10/18 02:32:29;;;;;;;;;22.75;20.00;;;;;13.24;56.43;101267.41;5049444;28;45748;-82
2021/10/18 02:34:54;;;;;;;;;24.00;21.25;;;;;13.26;55.92;101267.31;5060322;28;45751;-83
2021/10/18 02:37:20;;;;;;;;;22.00;20.25;;;;;13.29;56.37;101262.66;5078976;28;46364;-83
2021/10/18 02:39:45;;;;;;;;;25.00;21.00;;;;;13.37;56.29;101296.34;5076148;28;46808;-84
2021/10/18 02:42:10;;;;;;;;;22.50;22.25;;;;;13.31;56.07;101279.19;5081075;28;45744;-84
2021/10/18 02:44:36;;;;;;;;;23.50;20.25;;;;;13.35;56.43;101295.59;5080895;28;45763;-84
2021/10/18 02:47:02;;;;;;;;;24.00;21.00;;;;;13.31;56.64;101287.09;5078355;28;48788;-84
2021/10/18 02:49:28;;;;;;;;;22.00;20.25;;;;;13.20;56.31;101273.00;5057718;28;47093;-84
2021/10/18 02:51:53;;;;;;;;;20.25;19.75;;;;;13.04;56.13;101252.19;5066945;28;45767;-85
2021/10/18 02:54:18;;;;;;;;;24.00;21.00;;;;;13.28;56.21;101295.19;5055506;28;45790;-84
2021/10/18 02:56:44;;;;;;;;;18.25;15.25;;;;;13.26;56.50;101276.06;5071274;28;45804;-84
2021/10/18 02:59:09;;;;;;;;;22.00;20.00;;;;;13.17;56.74;101265.34;5052581;28;48342;-85
2021/10/18 03:01:35;;;;;;;;;21.50;19.50;;;;;12.89;56.51;101216.44;5064459;28;46109;-86
2021/10/18 03:04:00;;;;;;;;;26.00;23.50;;;;;12.88;56.28;101212.97;5072362;28;45806;-83
2021/10/18 03:06:26;;;;;;;;;22.25;20.50;;;;;13.15;56.40;101260.19;5071219;28;47390;-84
2021/10/18 03:08:53;;;;;;;;;22.50;21.25;;;;;12.93;56.53;101225.81;5052420;28;48101;-84
2021/10/18 03:11:19;;;;;;;;;22.25;20.00;;;;;13.11;56.48;101249.97;5086656;27;45898;-83
2021/10/18 03:13:44;;;;;;;;;26.75;23.00;;;;;13.18;56.71;101270.47;5072551;28;45759;-84
2021/10/18 03:16:09;;;;;;;;;28.75;25.25;;;;;13.17;56.78;101260.09;5087043;27;48395;-83
2021/10/18 03:18:35;;;;;;;;;24.00;20.00;;;;;13.07;56.86;101249.31;5055225;28;47197;-83
2021/10/18 03:21:00;;;;;;;;;23.25;22.00;;;;;13.07;56.23;101246.69;5056355;28;45668;-84
2021/10/18 03:23:25;;;;;;;;;22.00;21.50;;;;;13.03;56.72;101246.06;5075009;28;45684;-83
2021/10/18 03:25:51;;;;;;;;;22.75;21.00;;;;;12.97;56.77;101240.41;5057694;28;47722;-83
2021/10/18 03:28:16;;;;;;;;;25.25;19.50;;;;;12.95;57.07;101240.53;5077614;28;45630;-84
2021/10/18 03:30:47;;;;;;;;;23.75;20.50;;;;;13.02;56.98;101270.69;5059239;28;46053;-85
2021/10/18 03:33:12;;;;;;;;;22.25;19.75;;;;;12.92;56.89;101251.25;5059185;28;46013;-84
2021/10/18 03:35:38;;;;;;;;;23.25;21.50;;;;;13.08;57.03;101272.06;5059278;28;47348;-85
2021/10/18 03:38:04;;;;;;;;;26.25;20.00;;;;;12.99;57.01;101263.03;5077769;28;45649;-84
2021/10/18 03:40:29;;;;;;;;;24.00;21.75;;;;;12.88;57.09;101244.53;5077599;28;45672;-85
2021/10/18 03:42:55;;;;;;;;;21.75;19.50;;;;;13.00;56.94;101275.25;5075837;28;45621;-84
2021/10/18 03:45:20;;;;;;;;;21.75;18.75;;;;;12.93;56.91;101267.88;5059069;28;48489;-83
2021/10/18 03:47:45;;;;;;;;;20.00;19.25;;;;;12.83;57.11;101246.66;5059032;28;47107;-83
2021/10/18 03:50:12;;;;;;;;;19.00;19.00;;;;;12.82;57.31;101247.59;5077472;28;45499;-84
2021/10/18 03:52:37;;;;;;;;;24.50;22.25;;;;;12.70;57.06;101240.56;5059806;28;45491;-82
2021/10/18 04:01:28;;;;;;;;;25.25;23.50;;;;;12.94;57.14;101293.25;5077587;28;45561;-84
2021/10/18 04:03:53;;;;;;;;;27.25;22.50;;;;;12.92;57.27;101303.84;5077986;28;45647;-83
2021/10/18 04:06:18;;;;;;;;;19.75;18.75;;;;;12.89;57.28;101295.34;5058868;28;47427;-83
2021/10/18 04:08:48;;;;;;;;;22.50;20.75;;;;;12.84;57.59;101286.94;5077323;28;45767;-84
2021/10/18 04:11:14;;;;;;;;;21.75;19.25;;;;;12.86;57.68;101292.91;5077186;28;45904;-84
2021/10/18 04:13:39;;;;;;;;;22.25;19.00;;;;;12.82;57.48;101289.66;5077189;28;45542;-84
2021/10/18 04:16:04;;;;;;;;;21.75;20.75;;;;;12.58;57.63;101258.03;5058592;28;47314;-83
2021/10/18 04:18:30;;;;;;;;;30.75;22.75;;;;;12.85;57.58;101299.13;5077234;28;45628;-84
2021/10/18 04:20:55;;;;;;;;;24.50;20.00;;;;;12.71;57.54;101286.94;5077053;28;45649;-83
2021/10/18 04:23:21;;;;;;;;;26.50;23.75;;;;;12.66;57.60;101277.69;5059076;28;45784;-82
2021/10/18 04:25:46;;;;;;;;;24.00;22.25;;;;;12.59;57.30;101277.25;5077404;28;46858;-82
2021/10/18 04:28:11;;;;;;;;;25.50;23.50;;;;;12.82;57.71;101305.44;5077455;28;45622;-83
2021/10/18 04:30:37;;;;;;;;;25.75;21.75;;;;;12.81;57.59;101306.38;5077411;28;45787;-83
2021/10/18 04:33:02;;;;;;;;;21.50;19.00;;;;;12.68;57.65;101297.69;5059243;28;45900;-84
2021/10/18 04:35:27;;;;;;;;;22.00;19.50;;;;;12.46;57.47;101266.78;5077061;28;45990;-84
2021/10/18 04:37:53;;;;;;;;;27.25;23.50;;;;;12.63;57.88;101298.94;5082312;28;46251;-86
2021/10/18 04:40:18;;;;;;;;;28.25;24.25;;;;;12.55;57.83;101291.56;5065326;28;45802;-84
2021/10/18 04:46:06;;;;;;;;;22.75;20.25;;;;;12.71;57.70;101321.13;5082761;28;45691;-83
2021/10/18 04:48:31;;;;;;;;;20.00;19.25;;;;;12.53;57.63;101304.81;5078857;28;48307;-84
2021/10/18 04:50:56;;;;;;;;;26.50;22.50;;;;;12.65;58.10;101320.69;5058117;28;45641;-85
2021/10/18 04:53:22;;;;;;;;;19.25;17.00;;;;;12.55;58.01;101307.34;5076448;28;45661;-83
2021/10/18 04:55:47;;;;;;;;;23.00;20.25;;;;;12.32;57.78;101277.34;5076423;28;46275;-85
2021/10/18 04:58:13;;;;;;;;;21.00;19.75;;;;;12.39;57.86;101286.53;5057975;28;48070;-85
2021/10/18 05:00:47;;;;;;;;;25.25;20.50;;;;;12.56;58.15;101317.75;5057780;28;45679;-86
2021/10/18 05:03:13;;;;;;;;;29.75;26.50;;;;;12.59;57.99;101341.19;5076545;28;45613;-85
2021/10/18 05:05:39;;;;;;;;;24.50;21.00;;;;;12.41;58.10;101310.06;5057652;28;48486;-84
2021/10/18 05:08:10;;;;;;;;;23.50;20.50;;;;;12.58;58.02;101341.28;5057878;28;48170;-84
2021/10/18 05:17:00;;;;;;;;;23.25;22.00;;;;;12.60;58.09;101349.94;5075892;28;45574;-84
2021/10/18 05:19:25;;;;;;;;;20.25;18.00;;;;;12.44;57.87;101323.00;5076054;28;46290;-84
2021/10/18 05:21:51;;;;;;;;;24.00;20.00;;;;;12.49;58.15;101337.50;5057586;28;45558;-83
2021/10/18 05:24:16;;;;;;;;;23.50;22.25;;;;;12.57;58.02;101350.16;5076534;28;45502;-85
2021/10/18 05:26:42;;;;;;;;;21.50;20.50;;;;;12.57;58.40;101337.00;5075517;28;46147;-85
2021/10/18 05:29:08;;;;;;;;;22.00;20.00;;;;;12.37;58.54;101312.03;5076112;28;46313;-82
2021/10/18 05:31:34;;;;;;;;;25.50;22.50;;;;;12.47;58.55;101342.00;5076409;28;45420;-85
2021/10/18 05:34:00;;;;;;;;;22.25;22.25;;;;;12.52;58.42;101347.81;5057876;28;45554;-83
2021/10/18 05:36:25;;;;;;;;;20.50;20.25;;;;;12.48;58.27;101351.59;5076026;28;45568;-82
2021/10/18 05:38:51;;;;;;;;;20.50;20.25;;;;;12.11;58.63;101294.56;5076560;28;45741;-85
2021/10/18 05:41:16;;;;;;;;;21.50;20.50;;;;;12.31;58.63;101324.78;5058255;28;45712;-86
2021/10/18 05:43:42;;;;;;;;;25.00;19.25;;;;;12.17;58.58;101294.16;5076033;28;45572;-85
2021/10/18 05:46:08;;;;;;;;;22.00;19.50;;;;;12.47;58.47;101347.28;5057415;28;47382;-87
2021/10/18 05:48:34;;;;;;;;;25.25;23.00;;;;;12.48;58.15;101348.13;5057056;28;47268;-84
2021/10/18 05:51:00;;;;;;;;;22.00;20.00;;;;;12.07;58.45;101277.31;5057225;28;45652;-81
2021/10/18 05:53:25;;;;;;;;;22.00;19.50;;;;;12.39;58.78;101332.97;5075598;28;45682;-81
2021/10/18 05:55:51;;;;;;;;;19.75;18.25;;;;;12.46;58.68;101339.50;5074574;28;46617;-80
2021/10/18 06:01:38;;;;;;;;;22.00;20.00;;;;;12.31;58.40;101333.47;5074946;28;45740;-80
2021/10/18 06:04:04;;;;;;;;;21.00;20.50;;;;;12.36;58.63;101338.44;5075393;28;45977;-82
2021/10/18 06:06:33;;;;;;;;;24.75;21.50;;;;;12.23;58.53;101325.28;5074914;28;45530;-81
2021/10/18 06:08:58;;;;;;;;;21.25;19.00;;;;;12.34;58.96;101350.84;5074926;28;46323;-80
2021/10/18 06:11:24;;;;;;;;;20.50;20.00;;;;;12.43;58.88;101366.81;5075178;28;45642;-81
2021/10/18 06:13:49;;;;;;;;;33.75;23.25;;;;;12.32;58.61;101344.81;5075567;28;45849;-82
2021/10/18 06:16:14;;;;;;;;;20.00;18.00;;;;;12.43;58.74;101368.59;5074998;28;45541;-80
2021/10/18 06:18:40;;;;;;;;;26.75;23.50;;;;;12.41;58.77;101360.00;5074935;28;46096;-80
2021/10/18 06:21:05;;;;;;;;;25.00;22.00;;;;;12.40;58.74;101363.56;5074664;28;45625;-81
2021/10/18 06:23:30;;;;;;;;;25.00;24.25;;;;;12.26;58.65;101340.81;5057028;28;45630;-81
2021/10/18 06:25:56;;;;;;;;;28.75;25.25;;;;;12.39;58.65;101359.25;5074896;28;45566;-84
2021/10/18 06:31:43;;;;;;;;;28.00;26.75;;;;;12.42;58.78;101359.88;5074445;28;45878;-81
2021/10/18 06:34:08;;;;;;;;;31.00;27.25;;;;;12.42;58.75;101362.50;5075717;28;45556;-82
2021/10/18 06:36:34;;;;;;;;;38.00;31.25;;;;;12.23;58.88;101332.31;5076231;28;45587;-86
2021/10/18 06:38:59;;;;;;;;;31.25;28.50;;;;;12.43;59.05;101368.59;5075887;28;46312;-84
2021/10/18 06:41:26;;;;;;;;;31.25;28.00;;;;;12.33;58.79;101357.03;5075017;28;45669;-83
2021/10/18 06:43:51;;;;;;;;;30.75;27.50;;;;;12.42;58.87;101365.13;5057238;28;45716;-84
2021/10/18 06:46:16;;;;;;;;;31.50;30.00;;;;;12.42;59.04;101365.13;5075859;28;46417;-81
2021/10/18 06:48:43;;;;;;;;;35.50;27.25;;;;;12.23;59.17;101345.44;5076362;28;45762;-85
2021/10/18 06:51:08;;;;;;;;;37.75;32.50;;;;;12.34;58.83;101361.34;5080169;28;45914;-82
2021/10/18 06:53:35;;;;;;;;;33.00;30.00;;;;;12.15;59.05;101338.91;5081235;28;45789;-83
2021/10/18 06:56:04;;;;;;;;;34.25;31.50;;;;;12.44;59.09;101371.16;5080480;28;45759;-83
2021/10/18 07:01:51;;;;;;;;;30.75;27.75;;;;;12.44;59.36;101372.94;5081895;28;45911;-80
2021/10/18 07:04:18;;;;;;;;;34.00;32.25;;;;;12.35;58.89;101360.41;5080397;28;45524;-84
2021/10/18 07:06:44;;;;;;;;;36.75;29.75;;;;;12.48;59.16;101375.25;5078810;28;46529;-85
2021/10/18 07:09:10;;;;;;;;;34.50;32.50;;;;;12.28;59.12;101345.97;5082412;28;45844;-84
2021/10/18 07:11:35;;;;;;;;;32.50;27.75;;;;;12.46;59.19;101374.53;5080656;28;45632;-84
2021/10/18 07:14:01;;;;;;;;;35.00;31.00;;;;;12.46;59.27;101371.06;5080607;28;45538;-85
2021/10/18 07:16:26;;;;;;;;;20.25;19.75;;;;;12.52;59.09;101389.03;5080540;28;46549;-81
2021/10/18 07:18:52;;;;;;;;;28.50;25.50;;;;;12.57;59.32;101400.94;5080807;28;45647;-85
2021/10/18 07:21:17;;;;;;;;;27.00;24.50;;;;;12.59;59.03;101385.88;5079626;28;45799;-80
2021/10/18 07:23:45;;;;;;;;;26.25;25.75;;;;;12.44;59.02;101360.63;5078509;28;45556;-81
2021/10/18 07:26:10;;;;;;;;;28.50;26.50;;;;;12.44;59.30;101362.41;5077812;28;46410;-80
2021/10/18 07:32:25;;;;;;;;;31.50;27.00;;;;;12.65;59.46;101394.31;5077548;28;45933;-80
2021/10/18 07:34:50;;;;;;;;;29.50;26.25;;;;;12.58;59.64;101373.69;5077911;28;45772;-78
2021/10/18 07:37:18;;;;;;;;;26.75;26.25;;;;;12.69;59.55;101382.63;5077874;28;46655;-80
2021/10/18 07:39:44;;;;;;;;;29.25;25.50;;;;;12.40;59.53;101343.38;5077294;28;47237;-82
2021/10/18 07:42:14;;;;;;;;;28.00;24.25;;;;;12.70;59.52;101377.28;5078439;28;45703;-79
2021/10/18 07:44:40;;;;;;;;;28.50;25.50;;;;;12.77;59.44;101390.84;5060066;28;45514;-79
2021/10/18 07:47:05;;;;;;;;;25.00;23.25;;;;;12.79;59.41;101386.34;5078846;28;46488;-81
2021/10/18 07:49:35;;;;;;;;;24.00;23.00;;;;;12.76;59.45;101374.22;5077682;28;45831;-80
2021/10/18 07:52:00;;;;;;;;;27.50;20.75;;;;;12.84;59.72;101386.88;5078183;28;45598;-79
2021/10/18 07:54:27;;;;;;;;;26.25;22.25;;;;;12.87;59.44;101389.28;5077858;28;45614;-82
2021/10/18 07:56:53;;;;;;;;;28.75;22.00;;;;;12.89;59.74;101395.28;5077643;28;45600;-79
2021/10/18 07:59:18;;;;;;;;;28.50;23.50;;;;;12.92;59.85;101395.91;5077000;28;46316;-79
2021/10/18 08:01:44;;;;;;;;;24.50;22.25;;;;;12.93;59.71;101399.38;5077302;28;45604;-80
2021/10/18 08:04:09;;;;;;;;;27.50;24.75;;;;;12.94;59.54;101396.66;5077223;28;45593;-79
2021/10/18 08:06:34;;;;;;;;;23.00;21.50;;;;;12.99;59.90;101405.06;5076971;28;45576;-79
2021/10/18 08:09:01;;;;;;;;;30.00;23.50;;;;;12.92;59.58;101398.53;5076714;28;46426;-78
2021/10/18 08:11:27;;;;;;;;;22.75;21.25;;;;;13.04;59.54;101402.13;5076321;28;45750;-80
2021/10/18 08:17:14;;;;;;;;;25.75;23.00;;;;;13.09;59.75;101407.06;5077024;28;46026;-85
2021/10/18 08:19:39;;;;;;;;;24.50;24.00;;;;;12.91;59.51;101373.19;5076960;28;45959;-80
2021/10/18 08:22:05;;;;;;;;;25.75;22.50;;;;;13.18;59.89;101422.25;5076904;28;45479;-80
2021/10/18 08:24:31;;;;;;;;;22.75;20.25;;;;;13.15;59.62;101417.22;5077085;28;45783;-78
2021/10/18 08:26:56;;;;;;;;;21.50;21.50;;;;;13.20;59.79;101417.72;5077073;28;46377;-80
2021/10/18 08:32:56;;;;;;;;;26.25;25.00;;;;;13.24;60.10;101419.19;5076996;28;45846;-80
2021/10/18 08:35:22;;;;;;;;;24.75;23.00;;;;;13.33;59.89;101431.75;5058997;28;45545;-78
2021/10/18 08:40:34;;;;;;;;;29.50;26.00;;;;;13.33;59.93;101408.06;5076973;28;46253;-78
2021/10/18 08:43:05;;;;;;;;;24.00;22.75;;;;;13.47;60.05;101414.97;5076838;28;45809;-80
2021/10/18 08:45:30;;;;;;;;;28.25;22.50;;;;;13.51;59.88;101405.91;5076835;28;45775;-81
2021/10/18 08:47:56;;;;;;;;;31.50;24.50;;;;;13.53;60.13;101402.22;5076276;28;45523;-79
2021/10/18 08:50:25;;;;;;;;;22.75;22.00;;;;;13.60;59.71;101410.53;5076138;28;46530;-80
2021/10/18 08:52:51;;;;;;;;;26.25;23.75;;;;;13.66;59.83;101402.16;5076363;28;45592;-79
2021/10/18 08:55:17;;;;;;;;;26.75;24.75;;;;;13.69;60.33;101402.81;5076800;28;45549;-79
2021/10/18 08:57:42;;;;;;;;;25.25;24.25;;;;;13.71;60.02;101395.63;5058370;28;47030;-81
2021/10/18 09:00:38;;;;;;;;;28.00;25.50;;;;;13.79;60.37;101392.47;5076685;28;46140;-79
2021/10/18 09:03:25;;;;;;;;;27.25;24.75;;;;;13.84;60.27;101409.63;5076981;28;45799;-82
2021/10/18 09:06:07;;;;;;;;;26.75;22.75;;;;;13.82;60.24;101392.22;5076499;28;45776;-81
2021/10/18 09:08:39;;;;;;;;;31.75;27.50;;;;;13.86;60.07;101383.16;5079602;28;47645;-80
2021/10/18 09:11:11;;;;;;;;;29.25;25.00;;;;;13.99;60.41;101389.22;5080773;28;46308;-81
2021/10/18 09:13:41;;;;;;;;;29.50;25.00;;;;;13.99;60.42;101386.56;5082161;28;45588;-84
2021/10/18 09:16:08;;;;;;;;;29.25;24.75;;;;;13.99;60.25;101381.31;5082796;28;45523;-83
2021/10/18 09:18:34;;;;;;;;;28.25;26.00;;;;;14.08;60.01;101383.28;5082654;28;46299;-79
2021/10/18 09:20:59;;;;;;;;;25.00;23.75;;;;;14.19;60.14;101391.25;5081022;28;45573;-82
2021/10/18 09:25:58;;;;;;;;;31.25;27.25;;;;;14.30;60.55;101382.56;5080070;28;45530;-81
2021/10/18 09:28:26;;;;;;;;;32.75;29.75;;;;;14.25;60.06;101367.06;5080249;28;46589;-80
2021/10/18 09:30:51;;;;;;;;;27.00;24.00;;;;;14.40;60.53;101394.13;5077647;28;45998;-81
2021/10/18 09:33:25;;;;;;;;;38.25;33.25;;;;;14.46;60.15;101384.91;5076610;28;45717;-79
2021/10/18 09:35:52;;;;;;;;;32.00;29.00;;;;;14.48;60.58;101389.09;5075837;28;45602;-82
2021/10/18 09:38:21;;;;;;;;;30.50;26.25;;;;;14.55;60.56;101390.34;5075753;28;46750;-82
2021/10/18 09:40:47;;;;;;;;;33.25;30.00;;;;;14.42;60.21;101346.53;5075848;28;46342;-80
2021/10/18 09:43:14;;;;;;;;;28.25;25.75;;;;;14.61;60.17;101373.22;5075717;28;45630;-81
2021/10/18 09:46:01;;;;;;;;;30.50;29.00;;;;;14.66;60.56;101385.09;5075869;28;45501;-85
2021/10/18 10:51:22;;;;;;;;;30.75;28.75;;;;;15.74;60.59;101391.63;5074806;28;45687;-81
2021/10/18 10:53:50;;;;;;;;;23.75;22.00;;;;;15.77;60.59;101388.75;5075024;28;45456;-83
2021/10/18 10:56:29;;;;;;;;;24.25;22.00;;;;;15.90;60.58;101389.44;5056737;28;46607;-82
2021/10/18 11:02:28;;;;;;;;;25.00;22.50;;;;;16.04;60.76;101386.50;5074596;28;45766;-84
2021/10/18 11:04:54;;;;;;;;;28.00;24.25;;;;;16.08;60.57;101371.25;5074686;28;45526;-84
2021/10/18 11:07:35;;;;;;;;;28.50;23.75;;;;;16.08;60.44;101356.25;5074977;28;45889;-85
2021/10/18 11:10:04;;;;;;;;;27.75;24.75;;;;;16.25;60.43;101363.59;5074797;28;45952;-85
2021/10/18 11:12:35;;;;;;;;;30.75;27.00;;;;;16.32;60.49;101363.94;5075320;28;45833;-85
2021/10/18 11:18:23;;;;;;;;;27.00;24.75;;;;;16.30;60.57;101356.13;5077040;28;46084;-85
2021/10/18 11:20:49;;;;;;;;;23.00;21.25;;;;;16.41;60.82;101357.88;5077771;28;45555;-84
2021/10/18 11:23:16;;;;;;;;;25.00;23.25;;;;;16.56;60.57;101367.19;5057934;28;45681;-84
2021/10/18 11:25:44;;;;;;;;;22.50;20.25;;;;;16.63;60.47;101386.88;5078243;28;45637;-83
2021/10/18 11:28:10;;;;;;;;;20.75;18.50;;;;;16.69;60.86;101386.38;5078786;28;45556;-85
2021/10/18 11:30:38;;;;;;;;;22.25;20.25;;;;;16.75;61.03;101390.31;5079761;28;45596;-84
2021/10/18 11:33:10;;;;;;;;;25.50;22.00;;;;;16.82;61.07;101383.53;5079543;28;45524;-81
2021/10/18 11:35:36;;;;;;;;;21.25;19.00;;;;;16.78;61.00;101367.09;5063351;28;45650;-80
2021/10/18 11:38:09;;;;;;;;;20.00;19.00;;;;;16.93;60.90;101374.69;5081529;28;46373;-82
2021/10/18 11:40:39;;;;;;;;;21.50;20.75;;;;;16.98;60.99;101375.97;5081212;28;45976;-82
2021/10/18 11:43:07;;;;;;;;;21.75;21.25;;;;;17.05;60.64;101371.00;5062399;28;46043;-81
2021/10/18 11:45:36;;;;;;;;;22.00;20.75;;;;;17.12;60.59;101369.47;5080006;28;45616;-82
2021/10/18 11:48:22;;;;;;;;;20.75;19.50;;;;;17.17;60.54;101356.66;5077226;28;45621;-81
2021/10/18 11:50:53;;;;;;;;;19.75;18.00;;;;;17.16;60.77;101339.13;5077309;28;46169;-79
2021/10/18 11:53:21;;;;;;;;;24.00;21.00;;;;;17.27;60.84;101346.97;5077628;28;45866;-80
2021/10/18 11:55:48;;;;;;;;;12.25;11.00;;;;;17.34;60.40;101326.91;5077330;28;45658;-80
2021/10/18 11:58:26;;;;;;;;;19.25;18.50;;;;;17.40;60.89;101322.88;5077456;28;46520;-82
2021/10/18 12:01:18;;;;;;;;;22.75;22.00;;;;;17.43;60.71;101326.13;5077454;28;46637;-80
2021/10/18 12:03:44;;;;;;;;;22.00;21.00;;;;;17.50;60.51;101321.09;5077340;28;45841;-84
2021/10/18 12:06:11;;;;;;;;;22.00;21.00;;;;;17.51;60.48;101305.06;5077788;28;45558;-81
2021/10/18 12:08:39;;;;;;;;;10.50;8.25;;;;;17.54;60.51;101299.47;5077429;28;45636;-85
2021/10/18 12:11:08;;;;;;;;;21.25;19.50;;;;;17.65;60.93;101301.22;5077076;28;46044;-82
2021/10/18 12:13:39;;;;;;;;;24.00;22.75;;;;;17.61;60.66;101273.31;5077318;28;45786;-83
2021/10/18 12:16:07;;;;;;;;;24.50;23.25;;;;;17.76;60.61;101302.91;5077787;28;45678;-81
2021/10/18 12:18:52;;;;;;;;;20.25;20.25;;;;;17.83;61.05;101301.38;5077049;28;46717;-80
2021/10/18 12:21:32;;;;;;;;;22.75;22.00;;;;;17.90;60.90;101300.69;5077111;28;45931;-82
2021/10/18 12:24:03;;;;;;;;;22.50;22.00;;;;;17.93;60.86;101295.09;5077064;28;45573;-81
2021/10/18 12:26:33;;;;;;;;;20.25;20.25;;;;;18.01;60.59;101281.13;5077355;28;45608;-81
2021/10/18 12:29:07;;;;;;;;;20.75;20.50;;;;;17.89;60.53;101245.13;5076993;28;45631;-83
2021/10/18 12:31:51;;;;;;;;;23.25;21.00;;;;;18.14;60.47;101276.38;5076633;28;45994;-80
2021/10/18 12:34:23;;;;;;;;;23.25;20.00;;;;;18.17;60.81;101276.09;5076975;28;45802;-80
2021/10/18 12:36:49;;;;;;;;;18.00;17.75;;;;;18.08;60.84;101252.25;5077152;28;45652;-80
2021/10/18 12:39:40;;;;;;;;;20.25;19.25;;;;;18.19;60.93;101260.06;5076578;28;45678;-81
2021/10/18 12:42:13;;;;;;;;;20.00;19.00;;;;;18.32;60.80;101268.53;5077050;28;45995;-82
2021/10/18 12:44:42;;;;;;;;;20.75;19.75;;;;;18.25;60.83;101260.28;5076293;28;45629;-79
2021/10/18 12:47:12;;;;;;;;;21.75;20.50;;;;;18.27;60.87;101249.56;5076863;28;45648;-82
2021/10/18 12:49:37;;;;;;;;;22.00;20.25;;;;;18.39;60.55;101269.63;5076141;28;46589;-80
2021/10/18 12:52:05;;;;;;;;;24.50;19.75;;;;;18.45;60.87;101272.56;5076577;28;45681;-81
2021/10/18 12:54:56;;;;;;;;;19.50;18.50;;;;;18.52;60.94;101270.16;5076439;28;45647;-81
2021/10/18 12:57:28;;;;;;;;;22.25;19.00;;;;;18.61;60.83;101277.31;5072412;28;45763;-79
2021/10/18 13:00:11;;;;;;;;;17.75;17.25;;;;;18.62;60.85;101259.56;5076120;28;46832;-79
2021/10/18 13:02:43;;;;;;;;;19.75;17.25;;;;;18.70;60.68;101262.31;5076446;28;46412;-80